sensor_id;sensor_type;location;lat;lon;timestamp;temperature;humidity
19307;DHT22;9788;48.194;16.318;2023-12-04T00:01:56;-5.00;99.90
19307;DHT22;9788;48.194;16.318;2023-12-04T00:04:25;-5.00;99.90
19307;DHT22;9788;48.194;16.318;2023-12-04T00:06:53;-5.10;99.90
19307;DHT22;9788;48.194;16.318;2023-12-04T00:09:21;-5.10;99.90
19307;DHT22;9788;48.194;16.318;2023-12-04T00:11:51;-5.10;99.90
19307;DHT22;9788;48.194;16.318;2023-12-04T00:14:24;-5.10;99.90
19307;DHT22;9788;48.194;16.318;2023-12-04T00:16:52;-5.10;99.90
19307;DHT22;9788;48.194;16.318;2023-12-04T00:19:19;-5.10;99.90
19307;DHT22;9788;48.194;16.318;2023-12-04T00:21:47;-5.20;99.90
19307;DHT22;9788;48.194;16.318;2023-12-04T00:24:18;-5.20;99.90
19307;DHT22;9788;48.194;16.318;2023-12-04T00:26:47;-5.10;99.90
19307;DHT22;9788;48.194;16.318;2023-12-04T00:29:15;-5.20;99.90
19307;DHT22;9788;48.194;16.318;2023-12-04T00:31:44;-5.20;99.90
19307;DHT22;9788;48.194;16.318;2023-12-04T00:34:12;-5.20;99.90
19307;DHT22;9788;48.194;16.318;2023-12-04T00:36:41;-5.30;99.90
19307;DHT22;9788;48.194;16.318;2023-12-04T00:39:09;-5.30;99.90
19307;DHT22;9788;48.194;16.318;2023-12-04T00:41:37;-5.30;99.90
19307;DHT22;9788;48.194;16.318;2023-12-04T00:44:06;-5.30;99.90
19307;DHT22;9788;48.194;16.318;2023-12-04T00:46:34;-5.40;99.90
19307;DHT22;9788;48.194;16.318;2023-12-04T00:49:05;-5.40;99.90
19307;DHT22;9788;48.194;16.318;2023-12-04T00:51:37;-5.40;99.90
19307;DHT22;9788;48.194;16.318;2023-12-04T00:54:06;-5.50;99.90
19307;DHT22;9788;48.194;16.318;2023-12-04T00:56:34;-5.70;99.90
19307;DHT22;9788;48.194;16.318;2023-12-04T00:59:04;-5.80;99.90
19307;DHT22;9788;48.194;16.318;2023-12-04T01:01:33;-5.80;99.90
19307;DHT22;9788;48.194;16.318;2023-12-04T01:04:02;-5.70;99.90
19307;DHT22;9788;48.194;16.318;2023-12-04T01:06:32;-5.70;99.90
19307;DHT22;9788;48.194;16.318;2023-12-04T01:09:00;-5.70;99.90
19307;DHT22;9788;48.194;16.318;2023-12-04T01:11:28;-5.80;99.90
19307;DHT22;9788;48.194;16.318;2023-12-04T01:13:56;-5.90;99.90
19307;DHT22;9788;48.194;16.318;2023-12-04T01:16:24;-5.90;99.90
19307;DHT22;9788;48.194;16.318;2023-12-04T01:18:53;-5.90;99.90
19307;DHT22;9788;48.194;16.318;2023-12-04T01:21:22;-5.90;99.90
19307;DHT22;9788;48.194;16.318;2023-12-04T01:23:56;-5.90;99.90
19307;DHT22;9788;48.194;16.318;2023-12-04T01:26:24;-6.00;99.90
19307;DHT22;9788;48.194;16.318;2023-12-04T01:28:53;-6.00;99.90
19307;DHT22;9788;48.194;16.318;2023-12-04T01:31:21;-6.00;99.90
19307;DHT22;9788;48.194;16.318;2023-12-04T01:33:49;-6.00;99.90
19307;DHT22;9788;48.194;16.318;2023-12-04T01:36:17;-6.10;99.90
19307;DHT22;9788;48.194;16.318;2023-12-04T01:38:45;-6.10;99.90
19307;DHT22;9788;48.194;16.318;2023-12-04T01:41:15;-6.10;99.90
19307;DHT22;9788;48.194;16.318;2023-12-04T01:43:43;-6.00;99.90
19307;DHT22;9788;48.194;16.318;2023-12-04T01:46:11;-6.00;99.90
19307;DHT22;9788;48.194;16.318;2023-12-04T01:48:41;-6.10;99.90
19307;DHT22;9788;48.194;16.318;2023-12-04T01:51:09;-6.10;99.90
19307;DHT22;9788;48.194;16.318;2023-12-04T01:53:39;-6.10;99.90
19307;DHT22;9788;48.194;16.318;2023-12-04T01:56:09;-6.20;99.90
19307;DHT22;9788;48.194;16.318;2023-12-04T01:58:38;-6.20;99.90
19307;DHT22;9788;48.194;16.318;2023-12-04T02:01:07;-6.20;99.90
19307;DHT22;9788;48.194;16.318;2023-12-04T02:03:35;-6.20;99.90
19307;DHT22;9788;48.194;16.318;2023-12-04T02:06:04;-6.30;99.90
19307;DHT22;9788;48.194;16.318;2023-12-04T02:08:33;-6.40;99.90
19307;DHT22;9788;48.194;16.318;2023-12-04T02:11:01;-6.40;99.90
19307;DHT22;9788;48.194;16.318;2023-12-04T02:13:29;-6.50;99.90
19307;DHT22;9788;48.194;16.318;2023-12-04T02:16:02;-6.50;99.90
19307;DHT22;9788;48.194;16.318;2023-12-04T02:18:33;-6.60;99.90
19307;DHT22;9788;48.194;16.318;2023-12-04T02:21:02;-6.60;99.90
19307;DHT22;9788;48.194;16.318;2023-12-04T02:23:30;-6.50;99.90
19307;DHT22;9788;48.194;16.318;2023-12-04T02:26:09;-6.50;99.90
19307;DHT22;9788;48.194;16.318;2023-12-04T02:28:38;-6.50;99.90
19307;DHT22;9788;48.194;16.318;2023-12-04T02:31:07;-6.50;99.90
19307;DHT22;9788;48.194;16.318;2023-12-04T02:33:36;-6.50;99.90
19307;DHT22;9788;48.194;16.318;2023-12-04T02:36:08;-6.40;99.90
19307;DHT22;9788;48.194;16.318;2023-12-04T02:38:38;-6.40;99.90
19307;DHT22;9788;48.194;16.318;2023-12-04T02:41:07;-6.50;99.90
19307;DHT22;9788;48.194;16.318;2023-12-04T02:43:35;-6.60;99.90
19307;DHT22;9788;48.194;16.318;2023-12-04T02:46:04;-6.60;99.90
19307;DHT22;9788;48.194;16.318;2023-12-04T02:48:32;-6.60;99.90
19307;DHT22;9788;48.194;16.318;2023-12-04T02:51:01;-6.60;99.90
19307;DHT22;9788;48.194;16.318;2023-12-04T02:53:32;-6.60;99.90
19307;DHT22;9788;48.194;16.318;2023-12-04T02:56:00;-6.60;99.90
19307;DHT22;9788;48.194;16.318;2023-12-04T02:58:30;-6.60;99.90
19307;DHT22;9788;48.194;16.318;2023-12-04T03:01:00;-6.60;99.90
19307;DHT22;9788;48.194;16.318;2023-12-04T03:03:29;-6.80;99.90
19307;DHT22;9788;48.194;16.318;2023-12-04T03:05:57;-6.80;99.90
19307;DHT22;9788;48.194;16.318;2023-12-04T03:08:25;-6.80;99.90
19307;DHT22;9788;48.194;16.318;2023-12-04T03:10:53;-6.80;99.90
19307;DHT22;9788;48.194;16.318;2023-12-04T03:13:21;-6.80;99.90
19307;DHT22;9788;48.194;16.318;2023-12-04T03:15:50;-6.80;99.90
19307;DHT22;9788;48.194;16.318;2023-12-04T03:18:19;-6.80;99.90
19307;DHT22;9788;48.194;16.318;2023-12-04T03:20:47;-6.80;99.90
19307;DHT22;9788;48.194;16.318;2023-12-04T03:23:15;-6.80;99.90
19307;DHT22;9788;48.194;16.318;2023-12-04T03:25:43;-6.80;99.90
19307;DHT22;9788;48.194;16.318;2023-12-04T03:28:11;-6.80;99.90
19307;DHT22;9788;48.194;16.318;2023-12-04T03:30:40;-6.80;99.90
19307;DHT22;9788;48.194;16.318;2023-12-04T03:33:12;-6.90;99.90
19307;DHT22;9788;48.194;16.318;2023-12-04T03:35:40;-6.90;99.90
19307;DHT22;9788;48.194;16.318;2023-12-04T03:38:08;-6.90;99.90
19307;DHT22;9788;48.194;16.318;2023-12-04T03:40:36;-7.00;99.90
19307;DHT22;9788;48.194;16.318;2023-12-04T03:43:07;-7.10;99.90
19307;DHT22;9788;48.194;16.318;2023-12-04T03:45:36;-7.10;99.90
19307;DHT22;9788;48.194;16.318;2023-12-04T03:48:04;-7.20;99.90
19307;DHT22;9788;48.194;16.318;2023-12-04T03:50:34;-7.20;99.90
19307;DHT22;9788;48.194;16.318;2023-12-04T03:53:02;-7.20;99.90
19307;DHT22;9788;48.194;16.318;2023-12-04T03:55:30;-7.30;99.90
19307;DHT22;9788;48.194;16.318;2023-12-04T03:57:59;-7.30;99.90
19307;DHT22;9788;48.194;16.318;2023-12-04T04:00:27;-7.10;99.90
19307;DHT22;9788;48.194;16.318;2023-12-04T04:02:56;-7.10;99.90
19307;DHT22;9788;48.194;16.318;2023-12-04T04:05:24;-7.10;99.90
19307;DHT22;9788;48.194;16.318;2023-12-04T04:07:53;-7.10;99.90
19307;DHT22;9788;48.194;16.318;2023-12-04T04:10:21;-7.10;99.90
19307;DHT22;9788;48.194;16.318;2023-12-04T04:12:49;-7.30;99.90
19307;DHT22;9788;48.194;16.318;2023-12-04T04:15:18;-7.40;99.90
19307;DHT22;9788;48.194;16.318;2023-12-04T04:17:46;-7.50;99.90
19307;DHT22;9788;48.194;16.318;2023-12-04T04:20:14;-7.60;99.90
19307;DHT22;9788;48.194;16.318;2023-12-04T04:22:42;-7.60;99.90
19307;DHT22;9788;48.194;16.318;2023-12-04T04:25:13;-7.60;99.90
19307;DHT22;9788;48.194;16.318;2023-12-04T04:27:41;-7.60;99.90
19307;DHT22;9788;48.194;16.318;2023-12-04T04:30:10;-7.50;99.90
19307;DHT22;9788;48.194;16.318;2023-12-04T04:32:41;-7.60;99.90
19307;DHT22;9788;48.194;16.318;2023-12-04T04:35:09;-7.60;99.90
19307;DHT22;9788;48.194;16.318;2023-12-04T04:37:37;-7.50;99.90
19307;DHT22;9788;48.194;16.318;2023-12-04T04:40:10;-7.60;99.90
19307;DHT22;9788;48.194;16.318;2023-12-04T04:42:39;-7.50;99.90
19307;DHT22;9788;48.194;16.318;2023-12-04T04:45:08;-7.50;99.90
19307;DHT22;9788;48.194;16.318;2023-12-04T04:47:36;-7.40;99.90
19307;DHT22;9788;48.194;16.318;2023-12-04T04:50:05;-7.40;99.90
19307;DHT22;9788;48.194;16.318;2023-12-04T04:52:34;-7.40;99.90
19307;DHT22;9788;48.194;16.318;2023-12-04T04:55:04;-7.40;99.90
19307;DHT22;9788;48.194;16.318;2023-12-04T04:57:32;-7.40;99.90
19307;DHT22;9788;48.194;16.318;2023-12-04T05:00:03;-7.40;99.90
19307;DHT22;9788;48.194;16.318;2023-12-04T05:02:34;-7.50;99.90
19307;DHT22;9788;48.194;16.318;2023-12-04T05:05:03;-7.50;99.90
19307;DHT22;9788;48.194;16.318;2023-12-04T05:07:31;-7.50;99.90
19307;DHT22;9788;48.194;16.318;2023-12-04T05:10:00;-7.40;99.90
19307;DHT22;9788;48.194;16.318;2023-12-04T05:12:32;-7.40;99.90
19307;DHT22;9788;48.194;16.318;2023-12-04T05:15:01;-7.40;99.90
19307;DHT22;9788;48.194;16.318;2023-12-04T05:17:30;-7.40;99.90
19307;DHT22;9788;48.194;16.318;2023-12-04T05:19:58;-7.40;99.90
19307;DHT22;9788;48.194;16.318;2023-12-04T05:22:27;-7.40;99.90
19307;DHT22;9788;48.194;16.318;2023-12-04T05:24:55;-7.40;99.90
19307;DHT22;9788;48.194;16.318;2023-12-04T05:27:23;-7.40;99.90
19307;DHT22;9788;48.194;16.318;2023-12-04T05:29:52;-7.40;99.90
19307;DHT22;9788;48.194;16.318;2023-12-04T05:32:22;-7.50;99.90
19307;DHT22;9788;48.194;16.318;2023-12-04T05:34:50;-7.50;99.90
19307;DHT22;9788;48.194;16.318;2023-12-04T05:37:18;-7.50;99.90
19307;DHT22;9788;48.194;16.318;2023-12-04T05:39:46;-7.40;99.90
19307;DHT22;9788;48.194;16.318;2023-12-04T05:42:15;-7.40;99.90
19307;DHT22;9788;48.194;16.318;2023-12-04T05:44:43;-7.40;99.90
19307;DHT22;9788;48.194;16.318;2023-12-04T05:47:12;-7.30;99.90
19307;DHT22;9788;48.194;16.318;2023-12-04T05:49:42;-7.40;99.90
19307;DHT22;9788;48.194;16.318;2023-12-04T05:52:11;-7.40;99.90
19307;DHT22;9788;48.194;16.318;2023-12-04T05:54:39;-7.40;99.90
19307;DHT22;9788;48.194;16.318;2023-12-04T05:57:08;-7.40;99.90
19307;DHT22;9788;48.194;16.318;2023-12-04T05:59:36;-7.40;99.90
19307;DHT22;9788;48.194;16.318;2023-12-04T06:02:07;-7.40;99.90
19307;DHT22;9788;48.194;16.318;2023-12-04T06:04:35;-7.40;99.90
19307;DHT22;9788;48.194;16.318;2023-12-04T06:07:08;-7.50;99.90
19307;DHT22;9788;48.194;16.318;2023-12-04T06:09:36;-7.60;99.90
19307;DHT22;9788;48.194;16.318;2023-12-04T06:12:10;-7.70;99.90
19307;DHT22;9788;48.194;16.318;2023-12-04T06:14:39;-7.80;99.90
19307;DHT22;9788;48.194;16.318;2023-12-04T06:17:07;-7.70;99.90
19307;DHT22;9788;48.194;16.318;2023-12-04T06:19:35;-7.70;99.90
19307;DHT22;9788;48.194;16.318;2023-12-04T06:22:04;-7.60;99.90
19307;DHT22;9788;48.194;16.318;2023-12-04T06:24:37;-7.50;99.90
19307;DHT22;9788;48.194;16.318;2023-12-04T06:27:06;-7.50;99.90
19307;DHT22;9788;48.194;16.318;2023-12-04T06:29:43;-7.50;99.90
19307;DHT22;9788;48.194;16.318;2023-12-04T06:32:16;-7.50;99.90
19307;DHT22;9788;48.194;16.318;2023-12-04T06:34:44;-7.40;99.90
19307;DHT22;9788;48.194;16.318;2023-12-04T06:37:15;-7.40;99.90
19307;DHT22;9788;48.194;16.318;2023-12-04T06:39:53;-7.50;99.90
19307;DHT22;9788;48.194;16.318;2023-12-04T06:42:34;-7.50;99.90
19307;DHT22;9788;48.194;16.318;2023-12-04T06:45:05;-7.60;99.90
19307;DHT22;9788;48.194;16.318;2023-12-04T06:47:34;-7.60;99.90
19307;DHT22;9788;48.194;16.318;2023-12-04T06:50:04;-7.40;99.90
19307;DHT22;9788;48.194;16.318;2023-12-04T06:52:32;-7.20;99.90
19307;DHT22;9788;48.194;16.318;2023-12-04T06:55:01;-7.10;99.90
19307;DHT22;9788;48.194;16.318;2023-12-04T06:57:30;-7.00;99.90
19307;DHT22;9788;48.194;16.318;2023-12-04T06:59:58;-6.90;99.90
19307;DHT22;9788;48.194;16.318;2023-12-04T07:02:26;-6.80;99.90
19307;DHT22;9788;48.194;16.318;2023-12-04T07:04:54;-6.80;99.90
19307;DHT22;9788;48.194;16.318;2023-12-04T07:07:23;-6.80;99.90
19307;DHT22;9788;48.194;16.318;2023-12-04T07:09:53;-6.70;99.90
19307;DHT22;9788;48.194;16.318;2023-12-04T07:12:22;-6.60;99.90
19307;DHT22;9788;48.194;16.318;2023-12-04T07:14:51;-6.50;99.90
19307;DHT22;9788;48.194;16.318;2023-12-04T07:17:19;-6.50;99.90
19307;DHT22;9788;48.194;16.318;2023-12-04T07:19:48;-6.30;99.90
19307;DHT22;9788;48.194;16.318;2023-12-04T07:22:17;-6.10;99.90
19307;DHT22;9788;48.194;16.318;2023-12-04T07:24:45;-5.90;99.90
19307;DHT22;9788;48.194;16.318;2023-12-04T07:27:13;-5.70;99.90
19307;DHT22;9788;48.194;16.318;2023-12-04T07:29:42;-5.60;99.90
19307;DHT22;9788;48.194;16.318;2023-12-04T07:32:11;-5.40;99.90
19307;DHT22;9788;48.194;16.318;2023-12-04T07:34:39;-5.30;99.90
19307;DHT22;9788;48.194;16.318;2023-12-04T07:37:07;-5.20;99.90
19307;DHT22;9788;48.194;16.318;2023-12-04T07:39:36;-5.10;99.90
19307;DHT22;9788;48.194;16.318;2023-12-04T07:42:04;-5.10;99.90
19307;DHT22;9788;48.194;16.318;2023-12-04T07:44:41;-5.10;99.90
19307;DHT22;9788;48.194;16.318;2023-12-04T07:47:10;-5.00;99.90
19307;DHT22;9788;48.194;16.318;2023-12-04T07:49:40;-4.90;99.90
19307;DHT22;9788;48.194;16.318;2023-12-04T07:52:08;-4.80;99.90
19307;DHT22;9788;48.194;16.318;2023-12-04T07:54:38;-4.70;99.90
19307;DHT22;9788;48.194;16.318;2023-12-04T07:57:07;-4.60;99.90
19307;DHT22;9788;48.194;16.318;2023-12-04T07:59:35;-4.70;99.90
19307;DHT22;9788;48.194;16.318;2023-12-04T08:02:03;-4.70;99.90
19307;DHT22;9788;48.194;16.318;2023-12-04T08:04:33;-4.80;99.90
19307;DHT22;9788;48.194;16.318;2023-12-04T08:07:01;-4.80;99.90
19307;DHT22;9788;48.194;16.318;2023-12-04T08:09:30;-4.90;99.90
19307;DHT22;9788;48.194;16.318;2023-12-04T08:11:58;-4.90;99.90
19307;DHT22;9788;48.194;16.318;2023-12-04T08:14:29;-4.90;99.90
19307;DHT22;9788;48.194;16.318;2023-12-04T08:16:57;-4.80;99.90
19307;DHT22;9788;48.194;16.318;2023-12-04T08:19:26;-4.70;99.90
19307;DHT22;9788;48.194;16.318;2023-12-04T08:21:56;-4.70;99.90
19307;DHT22;9788;48.194;16.318;2023-12-04T08:24:25;-4.60;99.90
19307;DHT22;9788;48.194;16.318;2023-12-04T08:26:53;-4.50;99.90
19307;DHT22;9788;48.194;16.318;2023-12-04T08:29:22;-4.50;99.90
19307;DHT22;9788;48.194;16.318;2023-12-04T08:31:50;-4.30;99.90
19307;DHT22;9788;48.194;16.318;2023-12-04T08:34:21;-4.10;99.90
19307;DHT22;9788;48.194;16.318;2023-12-04T08:36:49;-4.00;99.90
19307;DHT22;9788;48.194;16.318;2023-12-04T08:39:18;-4.10;99.90
19307;DHT22;9788;48.194;16.318;2023-12-04T08:41:47;-4.10;99.90
19307;DHT22;9788;48.194;16.318;2023-12-04T08:44:29;-4.10;99.90
19307;DHT22;9788;48.194;16.318;2023-12-04T08:46:57;-4.10;99.90
19307;DHT22;9788;48.194;16.318;2023-12-04T08:49:27;-4.10;99.90
19307;DHT22;9788;48.194;16.318;2023-12-04T08:52:08;-4.10;99.90
19307;DHT22;9788;48.194;16.318;2023-12-04T08:54:40;-4.00;99.90
19307;DHT22;9788;48.194;16.318;2023-12-04T08:57:09;-4.00;99.90
19307;DHT22;9788;48.194;16.318;2023-12-04T08:59:41;-4.00;99.90
19307;DHT22;9788;48.194;16.318;2023-12-04T09:02:11;-3.80;99.90
19307;DHT22;9788;48.194;16.318;2023-12-04T09:04:41;-3.40;99.90
19307;DHT22;9788;48.194;16.318;2023-12-04T09:07:11;-3.10;99.90
19307;DHT22;9788;48.194;16.318;2023-12-04T09:10:01;-2.60;99.90
19307;DHT22;9788;48.194;16.318;2023-12-04T09:12:39;-2.20;99.90
19307;DHT22;9788;48.194;16.318;2023-12-04T09:15:08;-2.00;99.90
19307;DHT22;9788;48.194;16.318;2023-12-04T09:17:37;-1.10;99.90
19307;DHT22;9788;48.194;16.318;2023-12-04T09:20:10;-0.40;99.90
19307;DHT22;9788;48.194;16.318;2023-12-04T09:22:39;0.00;99.90
19307;DHT22;9788;48.194;16.318;2023-12-04T09:25:20;0.10;99.90
19307;DHT22;9788;48.194;16.318;2023-12-04T09:27:48;-0.10;99.90
19307;DHT22;9788;48.194;16.318;2023-12-04T09:30:17;0.00;99.90
19307;DHT22;9788;48.194;16.318;2023-12-04T09:32:54;0.20;99.90
19307;DHT22;9788;48.194;16.318;2023-12-04T09:35:22;0.00;99.90
19307;DHT22;9788;48.194;16.318;2023-12-04T09:37:50;-0.30;99.90
19307;DHT22;9788;48.194;16.318;2023-12-04T09:40:20;-0.80;99.90
19307;DHT22;9788;48.194;16.318;2023-12-04T09:42:48;-1.10;99.90
19307;DHT22;9788;48.194;16.318;2023-12-04T09:45:18;-1.20;99.90
19307;DHT22;9788;48.194;16.318;2023-12-04T09:47:48;-1.10;99.90
19307;DHT22;9788;48.194;16.318;2023-12-04T09:50:17;-1.10;99.90
19307;DHT22;9788;48.194;16.318;2023-12-04T09:52:48;-1.00;99.90
19307;DHT22;9788;48.194;16.318;2023-12-04T09:55:17;-0.80;99.90
19307;DHT22;9788;48.194;16.318;2023-12-04T09:57:47;-0.50;99.90
19307;DHT22;9788;48.194;16.318;2023-12-04T10:00:16;-0.20;99.90
19307;DHT22;9788;48.194;16.318;2023-12-04T10:02:49;-0.20;99.90
19307;DHT22;9788;48.194;16.318;2023-12-04T10:05:18;-0.10;99.90
19307;DHT22;9788;48.194;16.318;2023-12-04T10:07:48;0.10;99.90
19307;DHT22;9788;48.194;16.318;2023-12-04T10:10:16;0.40;99.90
19307;DHT22;9788;48.194;16.318;2023-12-04T10:12:46;0.20;99.90
19307;DHT22;9788;48.194;16.318;2023-12-04T10:15:14;0.70;99.90
19307;DHT22;9788;48.194;16.318;2023-12-04T10:17:43;0.80;99.90
19307;DHT22;9788;48.194;16.318;2023-12-04T10:20:14;1.00;99.90
19307;DHT22;9788;48.194;16.318;2023-12-04T10:23:02;1.10;99.90
19307;DHT22;9788;48.194;16.318;2023-12-04T10:25:31;1.20;99.90
19307;DHT22;9788;48.194;16.318;2023-12-04T10:28:09;1.20;99.90
19307;DHT22;9788;48.194;16.318;2023-12-04T10:30:39;0.30;99.90
19307;DHT22;9788;48.194;16.318;2023-12-04T10:33:08;0.20;99.90
19307;DHT22;9788;48.194;16.318;2023-12-04T10:35:37;0.00;99.90
19307;DHT22;9788;48.194;16.318;2023-12-04T10:38:06;0.20;99.90
19307;DHT22;9788;48.194;16.318;2023-12-04T10:40:36;0.50;99.90
19307;DHT22;9788;48.194;16.318;2023-12-04T10:43:26;0.30;99.90
19307;DHT22;9788;48.194;16.318;2023-12-04T10:45:54;0.10;99.90
19307;DHT22;9788;48.194;16.318;2023-12-04T10:48:23;0.30;99.90
19307;DHT22;9788;48.194;16.318;2023-12-04T10:50:51;0.30;99.90
19307;DHT22;9788;48.194;16.318;2023-12-04T10:53:20;0.20;99.90
19307;DHT22;9788;48.194;16.318;2023-12-04T10:55:49;0.50;99.90
19307;DHT22;9788;48.194;16.318;2023-12-04T10:58:25;0.80;99.90
19307;DHT22;9788;48.194;16.318;2023-12-04T11:00:56;1.00;99.90
19307;DHT22;9788;48.194;16.318;2023-12-04T11:03:36;1.10;99.90
19307;DHT22;9788;48.194;16.318;2023-12-04T11:06:06;1.20;99.90
19307;DHT22;9788;48.194;16.318;2023-12-04T11:08:37;1.20;99.90
19307;DHT22;9788;48.194;16.318;2023-12-04T11:11:10;1.10;99.90
19307;DHT22;9788;48.194;16.318;2023-12-04T11:13:40;1.20;99.90
19307;DHT22;9788;48.194;16.318;2023-12-04T11:16:15;1.50;99.90
19307;DHT22;9788;48.194;16.318;2023-12-04T11:18:51;1.70;99.90
19307;DHT22;9788;48.194;16.318;2023-12-04T11:21:20;1.70;99.90
19307;DHT22;9788;48.194;16.318;2023-12-04T11:23:49;1.70;99.90
19307;DHT22;9788;48.194;16.318;2023-12-04T11:26:19;1.60;99.90
19307;DHT22;9788;48.194;16.318;2023-12-04T11:28:48;1.30;99.90
19307;DHT22;9788;48.194;16.318;2023-12-04T11:31:18;1.20;99.90
19307;DHT22;9788;48.194;16.318;2023-12-04T11:33:47;1.50;99.90
19307;DHT22;9788;48.194;16.318;2023-12-04T11:36:16;1.70;99.90
19307;DHT22;9788;48.194;16.318;2023-12-04T11:38:46;1.70;99.90
19307;DHT22;9788;48.194;16.318;2023-12-04T11:41:15;1.50;99.90
19307;DHT22;9788;48.194;16.318;2023-12-04T11:43:49;1.50;99.90
19307;DHT22;9788;48.194;16.318;2023-12-04T11:46:21;1.50;99.90
19307;DHT22;9788;48.194;16.318;2023-12-04T11:48:54;1.40;99.90
19307;DHT22;9788;48.194;16.318;2023-12-04T11:51:46;1.60;99.90
19307;DHT22;9788;48.194;16.318;2023-12-04T11:54:19;1.70;99.90
19307;DHT22;9788;48.194;16.318;2023-12-04T11:56:57;1.70;99.90
19307;DHT22;9788;48.194;16.318;2023-12-04T11:59:27;1.40;99.90
19307;DHT22;9788;48.194;16.318;2023-12-04T12:01:57;1.20;99.90
19307;DHT22;9788;48.194;16.318;2023-12-04T12:04:26;1.30;99.90
19307;DHT22;9788;48.194;16.318;2023-12-04T12:06:58;1.20;99.90
19307;DHT22;9788;48.194;16.318;2023-12-04T12:09:29;1.10;99.90
19307;DHT22;9788;48.194;16.318;2023-12-04T12:11:59;1.20;99.90
19307;DHT22;9788;48.194;16.318;2023-12-04T12:14:28;1.10;99.90
19307;DHT22;9788;48.194;16.318;2023-12-04T12:17:00;1.20;99.90
19307;DHT22;9788;48.194;16.318;2023-12-04T12:19:28;1.20;99.90
19307;DHT22;9788;48.194;16.318;2023-12-04T12:21:57;1.20;99.90
19307;DHT22;9788;48.194;16.318;2023-12-04T12:24:25;1.00;99.90
19307;DHT22;9788;48.194;16.318;2023-12-04T12:26:54;1.00;99.90
19307;DHT22;9788;48.194;16.318;2023-12-04T12:29:23;1.00;99.90
19307;DHT22;9788;48.194;16.318;2023-12-04T12:31:51;0.90;99.90
19307;DHT22;9788;48.194;16.318;2023-12-04T12:34:21;0.80;99.90
19307;DHT22;9788;48.194;16.318;2023-12-04T12:36:50;0.70;99.90
19307;DHT22;9788;48.194;16.318;2023-12-04T12:39:18;0.70;99.90
19307;DHT22;9788;48.194;16.318;2023-12-04T12:41:49;0.70;99.90
19307;DHT22;9788;48.194;16.318;2023-12-04T12:44:18;0.70;99.90
19307;DHT22;9788;48.194;16.318;2023-12-04T12:46:47;0.80;99.90
19307;DHT22;9788;48.194;16.318;2023-12-04T12:49:17;0.80;99.90
19307;DHT22;9788;48.194;16.318;2023-12-04T12:52:05;0.90;99.90
19307;DHT22;9788;48.194;16.318;2023-12-04T12:54:36;1.00;99.90
19307;DHT22;9788;48.194;16.318;2023-12-04T12:57:05;1.00;99.90
19307;DHT22;9788;48.194;16.318;2023-12-04T12:59:39;0.90;99.90
19307;DHT22;9788;48.194;16.318;2023-12-04T13:02:12;0.70;99.90
19307;DHT22;9788;48.194;16.318;2023-12-04T13:04:43;0.60;99.90
19307;DHT22;9788;48.194;16.318;2023-12-04T13:07:13;0.50;99.90
19307;DHT22;9788;48.194;16.318;2023-12-04T13:09:47;0.40;99.90
19307;DHT22;9788;48.194;16.318;2023-12-04T13:12:17;0.40;99.90
19307;DHT22;9788;48.194;16.318;2023-12-04T13:14:45;0.40;99.90
19307;DHT22;9788;48.194;16.318;2023-12-04T13:17:13;0.30;99.90
19307;DHT22;9788;48.194;16.318;2023-12-04T13:19:44;0.30;99.90
19307;DHT22;9788;48.194;16.318;2023-12-04T13:22:17;0.30;99.90
19307;DHT22;9788;48.194;16.318;2023-12-04T13:24:46;0.30;99.90
19307;DHT22;9788;48.194;16.318;2023-12-04T13:27:16;0.30;99.90
19307;DHT22;9788;48.194;16.318;2023-12-04T13:29:45;0.30;99.90
19307;DHT22;9788;48.194;16.318;2023-12-04T13:32:19;0.30;99.90
19307;DHT22;9788;48.194;16.318;2023-12-04T13:34:47;0.40;99.90
19307;DHT22;9788;48.194;16.318;2023-12-04T13:37:21;0.40;99.90
19307;DHT22;9788;48.194;16.318;2023-12-04T13:39:51;0.30;99.90
19307;DHT22;9788;48.194;16.318;2023-12-04T13:42:25;0.40;99.90
19307;DHT22;9788;48.194;16.318;2023-12-04T13:45:12;0.40;99.90
19307;DHT22;9788;48.194;16.318;2023-12-04T13:47:40;0.30;99.90
19307;DHT22;9788;48.194;16.318;2023-12-04T13:50:09;0.30;99.90
19307;DHT22;9788;48.194;16.318;2023-12-04T13:52:39;0.30;99.90
19307;DHT22;9788;48.194;16.318;2023-12-04T13:55:09;0.20;99.90
19307;DHT22;9788;48.194;16.318;2023-12-04T13:57:46;0.20;99.90
19307;DHT22;9788;48.194;16.318;2023-12-04T14:00:32;0.20;99.90
19307;DHT22;9788;48.194;16.318;2023-12-04T14:03:08;0.20;99.90
19307;DHT22;9788;48.194;16.318;2023-12-04T14:05:37;0.20;99.90
19307;DHT22;9788;48.194;16.318;2023-12-04T14:08:11;0.20;99.90
19307;DHT22;9788;48.194;16.318;2023-12-04T14:10:40;0.20;99.90
19307;DHT22;9788;48.194;16.318;2023-12-04T14:13:12;0.10;99.90
19307;DHT22;9788;48.194;16.318;2023-12-04T14:15:40;0.10;99.90
19307;DHT22;9788;48.194;16.318;2023-12-04T14:18:08;0.10;99.90
19307;DHT22;9788;48.194;16.318;2023-12-04T14:20:37;0.10;99.90
19307;DHT22;9788;48.194;16.318;2023-12-04T14:23:05;0.10;99.90
19307;DHT22;9788;48.194;16.318;2023-12-04T14:25:35;0.00;99.90
19307;DHT22;9788;48.194;16.318;2023-12-04T14:28:07;0.00;99.90
19307;DHT22;9788;48.194;16.318;2023-12-04T14:30:35;0.00;99.90
19307;DHT22;9788;48.194;16.318;2023-12-04T14:33:05;0.00;99.90
19307;DHT22;9788;48.194;16.318;2023-12-04T14:35:33;0.00;99.90
19307;DHT22;9788;48.194;16.318;2023-12-04T14:38:03;0.00;99.90
19307;DHT22;9788;48.194;16.318;2023-12-04T14:40:32;0.00;99.90
19307;DHT22;9788;48.194;16.318;2023-12-04T14:43:03;-0.10;99.90
19307;DHT22;9788;48.194;16.318;2023-12-04T14:45:34;-0.10;99.90
19307;DHT22;9788;48.194;16.318;2023-12-04T14:48:06;-0.10;99.90
19307;DHT22;9788;48.194;16.318;2023-12-04T14:50:36;-0.10;99.90
19307;DHT22;9788;48.194;16.318;2023-12-04T14:53:07;-0.10;99.90
19307;DHT22;9788;48.194;16.318;2023-12-04T14:55:43;-0.10;99.90
19307;DHT22;9788;48.194;16.318;2023-12-04T14:58:31;-0.10;99.90
19307;DHT22;9788;48.194;16.318;2023-12-04T15:01:22;-0.20;99.90
19307;DHT22;9788;48.194;16.318;2023-12-04T15:04:07;-0.20;99.90
19307;DHT22;9788;48.194;16.318;2023-12-04T15:07:04;-0.20;99.90
19307;DHT22;9788;48.194;16.318;2023-12-04T15:10:04;-0.30;99.90
19307;DHT22;9788;48.194;16.318;2023-12-04T15:12:50;-0.30;99.90
19307;DHT22;9788;48.194;16.318;2023-12-04T15:15:56;-0.30;99.90
19307;DHT22;9788;48.194;16.318;2023-12-04T15:18:44;-0.40;99.90
19307;DHT22;9788;48.194;16.318;2023-12-04T15:21:33;-0.30;99.90
19307;DHT22;9788;48.194;16.318;2023-12-04T15:24:03;-0.30;99.90
19307;DHT22;9788;48.194;16.318;2023-12-04T15:26:31;-0.30;99.90
19307;DHT22;9788;48.194;16.318;2023-12-04T15:28:58;-0.30;99.90
19307;DHT22;9788;48.194;16.318;2023-12-04T15:31:28;-0.30;99.90
19307;DHT22;9788;48.194;16.318;2023-12-04T15:33:55;-0.30;99.90
19307;DHT22;9788;48.194;16.318;2023-12-04T15:36:27;-0.40;99.90
19307;DHT22;9788;48.194;16.318;2023-12-04T15:38:55;-0.30;99.90
19307;DHT22;9788;48.194;16.318;2023-12-04T15:41:24;-0.30;99.90
19307;DHT22;9788;48.194;16.318;2023-12-04T15:43:52;-0.30;99.90
19307;DHT22;9788;48.194;16.318;2023-12-04T15:46:22;-0.30;99.90
19307;DHT22;9788;48.194;16.318;2023-12-04T15:48:51;-0.20;99.90
19307;DHT22;9788;48.194;16.318;2023-12-04T15:51:20;-0.30;99.90
19307;DHT22;9788;48.194;16.318;2023-12-04T15:53:47;-0.20;99.90
19307;DHT22;9788;48.194;16.318;2023-12-04T15:56:17;-0.20;99.90